Time;durP1;ratioP1;P1;durP2;ratioP2;P2;SDS_P1;SDS_P2;PMS_P1;PMS_P2;Temp;Humidity;BMP_temperature;BMP_pressure;BME280_temperature;BME280_humidity;BME280_pressure;Samples;Min_cycle;Max_cycle;Signal;HPM_P1;HPM_P2
2022/04/21 00:00:12;;;;;;;15.68;8.30;;;;;;;;;;5055198;27;95287;-76
2022/04/21 00:02:38;;;;;;;14.13;8.68;;;;;;;;;;5054841;27;96776;-77
2022/04/21 00:05:05;;;;;;;12.65;8.10;;;;;;;;;;5055354;27;96920;-77
2022/04/21 00:07:31;;;;;;;12.35;8.15;;;;;;;;;;5054301;27;95329;-75
2022/04/21 00:09:58;;;;;;;12.68;8.20;;;;;;;;;;5055052;27;96082;-76
2022/04/21 00:12:24;;;;;;;12.77;7.72;;;;;;;;;;5054965;27;97229;-77
2022/04/21 00:14:51;;;;;;;17.83;8.60;;;;;;;;;;5040256;27;95861;-77
2022/04/21 00:17:17;;;;;;;16.13;8.45;;;;;;;;;;5054688;27;97394;-76
2022/04/21 00:19:43;;;;;;;13.93;8.30;;;;;;;;;;5054394;27;95443;-75
2022/04/21 00:24:54;;;;;;;15.27;8.70;;;;;;;;;;5054378;27;97109;-76
2022/04/21 00:27:21;;;;;;;18.17;8.60;;;;;;;;;;5054253;27;95321;-76
2022/04/21 00:29:47;;;;;;;14.32;8.63;;;;;;;;;;5055033;27;96872;-76
2022/04/21 00:32:13;;;;;;;13.70;8.43;;;;;;;;;;5054569;27;97652;-74
2022/04/21 00:34:40;;;;;;;12.93;8.18;;;;;;;;;;5054557;27;95522;-75
2022/04/21 00:37:06;;;;;;;13.40;8.50;;;;;;;;;;5058108;27;95675;-74
2022/04/21 00:39:33;;;;;;;14.25;8.45;;;;;;;;;;5036655;27;95406;-76
2022/04/21 00:42:00;;;;;;;17.20;8.55;;;;;;;;;;5054281;27;96783;-75
2022/04/21 00:44:28;;;;;;;13.27;8.90;;;;;;;;;;5053093;27;96260;-76
2022/04/21 00:46:59;;;;;;;16.45;8.50;;;;;;;;;;5054549;27;95401;-76
2022/04/21 00:49:28;;;;;;;14.50;8.47;;;;;;;;;;5054203;27;96798;-75
2022/04/21 00:51:56;;;;;;;12.45;8.45;;;;;;;;;;5054111;27;97373;-76
2022/04/21 00:54:22;;;;;;;14.18;8.63;;;;;;;;;;5054433;27;95296;-76
2022/04/21 00:56:50;;;;;;;15.18;8.90;;;;;;;;;;5053881;27;96086;-75
2022/04/21 00:59:16;;;;;;;14.60;8.00;;;;;;;;;;5057237;27;97346;-75
2022/04/21 01:04:28;;;;;;;14.48;9.13;;;;;;;;;;5053641;27;97617;-76
2022/04/21 01:06:55;;;;;;;14.63;8.32;;;;;;;;;;5054492;27;95361;-74
2022/04/21 01:09:21;;;;;;;13.43;8.77;;;;;;;;;;5053599;27;97211;-77
2022/04/21 01:11:49;;;;;;;12.77;8.85;;;;;;;;;;5053421;27;96586;-76
2022/04/21 01:14:16;;;;;;;15.18;9.02;;;;;;;;;;5054190;27;95031;-74
2022/04/21 01:16:42;;;;;;;16.20;8.38;;;;;;;;;;5053910;27;96686;-74
2022/04/21 01:19:09;;;;;;;15.30;9.35;;;;;;;;;;5057243;27;97809;-74
2022/04/21 01:21:35;;;;;;;15.52;8.68;;;;;;;;;;5054269;27;96843;-74
2022/04/21 01:24:04;;;;;;;13.90;9.20;;;;;;;;;;5053832;27;97370;-75
2022/04/21 01:26:36;;;;;;;17.63;8.90;;;;;;;;;;5053530;27;95302;-75
2022/04/21 01:29:04;;;;;;;14.20;9.15;;;;;;;;;;5054387;27;96869;-76
2022/04/21 01:31:31;;;;;;;15.02;9.35;;;;;;;;;;5052742;27;97340;-75
2022/04/21 01:33:58;;;;;;;16.55;9.40;;;;;;;;;;5053838;27;95150;-75
2022/04/21 01:36:24;;;;;;;14.65;9.13;;;;;;;;;;5053855;27;96843;-76
2022/04/21 01:41:36;;;;;;;15.25;8.93;;;;;;;;;;5056866;27;95182;-75
2022/04/21 01:44:03;;;;;;;14.45;9.18;;;;;;;;;;5053341;27;97300;-76
2022/04/21 01:46:29;;;;;;;12.85;9.00;;;;;;;;;;5035501;27;95308;-75
2022/04/21 01:48:55;;;;;;;15.23;9.93;;;;;;;;;;5053553;27;96886;-76
2022/04/21 01:51:22;;;;;;;13.68;9.35;;;;;;;;;;5035236;27;97338;-74
2022/04/21 01:53:49;;;;;;;17.10;9.57;;;;;;;;;;5058833;27;95158;-75
2022/04/21 01:56:15;;;;;;;16.63;9.90;;;;;;;;;;5052714;27;96631;-74
2022/04/21 01:58:42;;;;;;;15.27;9.63;;;;;;;;;;5034064;27;95932;-76
2022/04/21 02:01:08;;;;;;;18.02;9.23;;;;;;;;;;5053550;27;95428;-74
2022/04/21 02:03:34;;;;;;;15.20;9.68;;;;;;;;;;5056497;27;96888;-74
2022/04/21 02:06:01;;;;;;;15.23;8.98;;;;;;;;;;5053143;27;95379;-75
2022/04/21 02:08:27;;;;;;;13.23;8.90;;;;;;;;;;5053234;27;96838;-75
2022/04/21 02:10:53;;;;;;;14.68;9.73;;;;;;;;;;5053217;27;97709;-77
2022/04/21 02:13:20;;;;;;;22.17;10.40;;;;;;;;;;5052643;27;95933;-75
2022/04/21 02:15:46;;;;;;;17.50;9.57;;;;;;;;;;5034953;27;97211;-77
2022/04/21 02:18:13;;;;;;;13.63;9.13;;;;;;;;;;5053053;27;97583;-77
2022/04/21 02:20:39;;;;;;;16.23;9.10;;;;;;;;;;5034402;27;95530;-77
2022/04/21 02:23:08;;;;;;;16.40;9.10;;;;;;;;;;5053170;27;96834;-76
2022/04/21 02:25:35;;;;;;;21.00;9.20;;;;;;;;;;5055890;27;97709;-76
2022/04/21 02:28:01;;;;;;;14.40;9.20;;;;;;;;;;5052968;27;96864;-76
2022/04/21 02:30:27;;;;;;;13.55;9.00;;;;;;;;;;5052652;27;97253;-78
2022/04/21 02:32:54;;;;;;;14.05;9.18;;;;;;;;;;5053066;27;95456;-76
2022/04/21 02:35:20;;;;;;;14.40;9.15;;;;;;;;;;5034498;27;96814;-77
2022/04/21 02:37:47;;;;;;;19.80;9.68;;;;;;;;;;5052673;27;97264;-77
2022/04/21 02:40:14;;;;;;;17.85;10.15;;;;;;;;;;5052932;27;95365;-78
2022/04/21 02:42:40;;;;;;;14.27;9.07;;;;;;;;;;5052637;27;95731;-77
2022/04/21 02:45:11;;;;;;;17.02;9.52;;;;;;;;;;5037884;27;97666;-76
2022/04/21 02:47:38;;;;;;;16.60;9.52;;;;;;;;;;5055436;27;95214;-77
2022/04/21 02:50:05;;;;;;;14.07;9.52;;;;;;;;;;5052588;27;98274;-73
2022/04/21 02:52:35;;;;;;;18.55;9.70;;;;;;;;;;5052221;27;95326;-73
2022/04/21 02:57:46;;;;;;;16.30;9.23;;;;;;;;;;5073282;27;97373;-77
2022/04/21 03:00:13;;;;;;;16.63;9.63;;;;;;;;;;5054101;27;95405;-75
2022/04/21 03:02:39;;;;;;;15.07;9.23;;;;;;;;;;5055073;27;96800;-77
2022/04/21 03:05:06;;;;;;;13.98;9.18;;;;;;;;;;5072904;27;96441;-75
2022/04/21 03:07:32;;;;;;;16.85;10.50;;;;;;;;;;5074444;27;95371;-76
2022/04/21 03:09:59;;;;;;;17.88;10.25;;;;;;;;;;5078295;27;96695;-78
2022/04/21 03:12:28;;;;;;;17.80;10.60;;;;;;;;;;5055794;27;95405;-77
2022/04/21 03:14:55;;;;;;;15.98;9.80;;;;;;;;;;5055791;27;96291;-76
2022/04/21 03:17:22;;;;;;;19.63;9.75;;;;;;;;;;5054740;27;96161;-77
2022/04/21 03:19:48;;;;;;;13.40;9.57;;;;;;;;;;5056264;27;95464;-76
2022/04/21 03:25:00;;;;;;;14.77;9.98;;;;;;;;;;5054712;27;97309;-77
2022/04/21 03:27:29;;;;;;;18.02;10.55;;;;;;;;;;5055119;27;95391;-75
2022/04/21 03:29:56;;;;;;;16.02;9.57;;;;;;;;;;5057620;27;95663;-75
2022/04/21 03:32:22;;;;;;;15.95;9.77;;;;;;;;;;5055560;27;95326;-74
2022/04/21 03:34:49;;;;;;;17.45;10.50;;;;;;;;;;5056230;27;97390;-76
2022/04/21 03:37:16;;;;;;;15.02;10.18;;;;;;;;;;5054787;27;96069;-74
2022/04/21 03:39:43;;;;;;;21.75;10.48;;;;;;;;;;5055524;27;95339;-76
2022/04/21 03:42:35;;;;;;;15.07;9.27;;;;;;;;;;5055638;27;96652;-74
2022/04/21 03:45:02;;;;;;;14.73;9.82;;;;;;;;;;5051005;27;97422;-73
2022/04/21 03:47:29;;;;;;;17.25;10.15;;;;;;;;;;5055280;27;95395;-73
2022/04/21 03:49:56;;;;;;;17.67;9.55;;;;;;;;;;5055671;27;97318;-74
2022/04/21 03:52:23;;;;;;;14.43;8.90;;;;;;;;;;5057465;27;97497;-75
2022/04/21 03:54:49;;;;;;;14.75;9.63;;;;;;;;;;5056191;27;96753;-76
2022/04/21 03:57:15;;;;;;;16.00;9.85;;;;;;;;;;5054027;27;97191;-74
2022/04/21 03:59:42;;;;;;;16.52;10.02;;;;;;;;;;5054163;27;96765;-74
2022/04/21 04:02:08;;;;;;;14.65;9.43;;;;;;;;;;5054522;27;96813;-76
2022/04/21 04:04:35;;;;;;;15.73;9.63;;;;;;;;;;5055116;27;97305;-74
2022/04/21 04:12:33;;;;;;;17.40;9.38;;;;;;;;;;5061180;27;97358;-76
2022/04/21 04:15:00;;;;;;;14.57;9.20;;;;;;;;;;5058400;27;96491;-77
2022/04/21 04:17:30;;;;;;;15.48;9.77;;;;;;;;;;5036880;27;98205;-74
2022/04/21 04:19:57;;;;;;;16.73;9.43;;;;;;;;;;5054719;27;95334;-75
2022/04/21 04:22:23;;;;;;;15.60;9.05;;;;;;;;;;5054367;27;95849;-76
2022/04/21 04:24:56;;;;;;;15.02;9.15;;;;;;;;;;5054814;27;97675;-75
2022/04/21 19:27:34;;;;;;;15.35;6.53;;;;;;;;;;5086998;27;95485;-76
2022/04/21 19:30:00;;;;;;;14.48;5.75;;;;;;;;;;5055896;27;97922;-75
2022/04/21 19:32:27;;;;;;;9.63;5.60;;;;;;;;;;5049669;27;95428;-75
2022/04/21 19:34:54;;;;;;;11.52;5.80;;;;;;;;;;5043391;27;96890;-76
2022/04/21 19:37:20;;;;;;;10.75;5.38;;;;;;;;;;5047353;27;97738;-75
2022/04/21 19:39:48;;;;;;;17.40;5.72;;;;;;;;;;5062504;27;96380;-76
2022/04/21 19:42:15;;;;;;;15.75;5.45;;;;;;;;;;5062986;27;95980;-75
2022/04/21 19:44:41;;;;;;;12.30;5.50;;;;;;;;;;5047530;27;97371;-76
2022/04/21 19:47:07;;;;;;;14.20;5.63;;;;;;;;;;5058434;27;95352;-75
2022/04/21 19:49:36;;;;;;;14.35;5.63;;;;;;;;;;5047873;27;98090;-79
2022/04/21 19:52:03;;;;;;;9.55;5.70;;;;;;;;;;5041491;27;95387;-74
2022/04/21 19:54:30;;;;;;;13.63;5.40;;;;;;;;;;5047443;27;97312;-75
2022/04/21 19:56:56;;;;;;;9.18;5.70;;;;;;;;;;5048643;27;97349;-75
2022/04/21 19:59:22;;;;;;;11.93;5.72;;;;;;;;;;5053480;27;95312;-77
2022/04/21 20:01:49;;;;;;;11.13;5.75;;;;;;;;;;5050680;27;95858;-75
2022/04/21 20:04:31;;;;;;;10.70;5.47;;;;;;;;;;5055435;27;97350;-76
2022/04/21 20:09:43;;;;;;;9.88;4.72;;;;;;;;;;5051177;27;95075;-76
2022/04/21 20:12:09;;;;;;;9.23;4.60;;;;;;;;;;5048227;27;96896;-75
2022/04/21 20:14:36;;;;;;;11.93;5.45;;;;;;;;;;5055267;27;96792;-75
2022/04/21 20:17:03;;;;;;;10.95;5.47;;;;;;;;;;5053672;27;96426;-76
2022/04/21 20:22:14;;;;;;;9.55;5.30;;;;;;;;;;5065013;27;96696;-73
2022/04/21 20:27:26;;;;;;;14.95;5.28;;;;;;;;;;5047872;27;95379;-76
2022/04/21 20:29:52;;;;;;;9.45;5.22;;;;;;;;;;5045554;27;95936;-74
2022/04/21 20:32:20;;;;;;;12.52;4.88;;;;;;;;;;5058387;27;97924;-76
2022/04/21 20:34:46;;;;;;;8.55;5.38;;;;;;;;;;5049596;27;96670;-74
2022/04/21 20:37:13;;;;;;;7.72;4.88;;;;;;;;;;5050732;27;97274;-73
2022/04/21 20:39:40;;;;;;;11.57;4.80;;;;;;;;;;5055392;27;95353;-77
2022/04/21 20:42:09;;;;;;;8.35;4.82;;;;;;;;;;5036765;27;96862;-74
2022/04/21 20:44:36;;;;;;;9.85;5.00;;;;;;;;;;5033405;27;97351;-76
2022/04/21 20:47:03;;;;;;;11.00;5.40;;;;;;;;;;5034980;27;96161;-73
2022/04/21 20:49:30;;;;;;;7.88;5.10;;;;;;;;;;5034455;27;96529;-76
2022/04/21 20:51:57;;;;;;;13.05;5.75;;;;;;;;;;5031934;27;97365;-76
2022/04/21 20:54:25;;;;;;;10.18;5.47;;;;;;;;;;5037331;27;95192;-78
2022/04/21 20:56:52;;;;;;;13.85;5.75;;;;;;;;;;5034670;27;97202;-75
2022/04/21 20:59:18;;;;;;;14.48;6.07;;;;;;;;;;5037190;27;96976;-76
2022/04/21 21:01:45;;;;;;;17.48;5.85;;;;;;;;;;5033968;27;95755;-78
2022/04/21 21:04:11;;;;;;;12.88;6.00;;;;;;;;;;5034154;27;97417;-77
2022/04/21 21:09:23;;;;;;;15.02;6.00;;;;;;;;;;5033220;27;96782;-76
2022/04/21 21:11:49;;;;;;;9.07;5.93;;;;;;;;;;5033530;27;97822;-76
2022/04/21 21:14:16;;;;;;;14.25;6.28;;;;;;;;;;5034412;27;96420;-76
2022/04/21 21:17:03;;;;;;;11.35;6.13;;;;;;;;;;5038242;27;98164;-77
2022/04/21 21:19:29;;;;;;;9.95;6.07;;;;;;;;;;5034577;27;95164;-76
2022/04/21 21:21:56;;;;;;;11.77;6.28;;;;;;;;;;5034859;27;96983;-77
2022/04/21 21:24:23;;;;;;;11.55;5.88;;;;;;;;;;5033119;28;97499;-77
2022/04/21 21:26:49;;;;;;;14.88;6.25;;;;;;;;;;5032323;27;95293;-77
2022/04/21 21:29:16;;;;;;;11.13;5.70;;;;;;;;;;5034101;27;95926;-70
2022/04/21 21:31:42;;;;;;;11.23;6.20;;;;;;;;;;5037454;27;99735;-76
2022/04/21 21:34:10;;;;;;;11.25;6.40;;;;;;;;;;5034018;27;95521;-73
2022/04/21 21:36:37;;;;;;;11.93;6.07;;;;;;;;;;5034828;27;97116;-76
2022/04/21 21:39:03;;;;;;;15.65;6.20;;;;;;;;;;5036818;27;96829;-76
2022/04/21 21:41:31;;;;;;;9.77;6.20;;;;;;;;;;5033907;27;96771;-76
2022/04/21 21:43:58;;;;;;;11.32;6.35;;;;;;;;;;5037201;27;96572;-76
2022/04/21 21:46:24;;;;;;;9.50;6.50;;;;;;;;;;5034052;27;95459;-76
2022/04/21 21:54:21;;;;;;;9.50;6.07;;;;;;;;;;5033598;27;95215;-76
2022/04/21 21:56:49;;;;;;;11.25;5.75;;;;;;;;;;5033137;27;97480;-72
2022/04/21 21:59:16;;;;;;;13.15;6.03;;;;;;;;;;5036908;27;98905;-75
2022/04/21 22:01:43;;;;;;;9.50;5.70;;;;;;;;;;5033514;27;96190;-74
2022/04/21 22:04:10;;;;;;;15.02;6.05;;;;;;;;;;5032981;27;97342;-75
2022/04/21 22:06:37;;;;;;;17.55;6.20;;;;;;;;;;5033151;28;95374;-74
2022/04/21 22:09:05;;;;;;;10.95;6.25;;;;;;;;;;5032986;27;98221;-73
2022/04/21 22:11:32;;;;;;;9.63;6.00;;;;;;;;;;5033121;27;97280;-76
2022/04/21 22:13:59;;;;;;;12.90;6.47;;;;;;;;;;5032870;28;95157;-73
2022/04/21 22:16:26;;;;;;;12.13;5.72;;;;;;;;;;5033224;28;97101;-75
2022/04/21 22:18:58;;;;;;;;;;;;;;;;;;5033929;27;96106;-73
2022/04/21 22:21:24;;;;;;;12.00;5.68;;;;;;;;;;5036150;28;117703;-75
2022/04/21 22:23:50;;;;;;;10.82;5.82;;;;;;;;;;5033531;28;100062;-74
2022/04/21 22:26:17;;;;;;;11.43;5.57;;;;;;;;;;5032798;27;95454;-73
2022/04/21 22:28:45;;;;;;;9.52;6.07;;;;;;;;;;5034113;28;96760;-75
2022/04/21 22:31:12;;;;;;;11.40;5.88;;;;;;;;;;5033166;28;97275;-75
2022/04/21 22:33:42;;;;;;;9.70;6.07;;;;;;;;;;5033430;28;95845;-74
2022/04/21 22:36:08;;;;;;;13.05;6.68;;;;;;;;;;5033048;27;95613;-76
2022/04/21 22:38:38;;;;;;;11.23;6.18;;;;;;;;;;5033456;27;97642;-76
2022/04/21 22:41:05;;;;;;;17.63;6.75;;;;;;;;;;5033187;27;95350;-75
2022/04/21 22:43:32;;;;;;;12.38;6.00;;;;;;;;;;5035562;27;96763;-77
2022/04/21 22:45:58;;;;;;;15.43;5.93;;;;;;;;;;5026069;28;95397;-75
2022/04/21 22:48:25;;;;;;;8.80;5.30;;;;;;;;;;5033172;27;95876;-77
2022/04/21 22:50:52;;;;;;;14.00;5.80;;;;;;;;;;5032735;28;97312;-77
2022/04/21 22:53:19;;;;;;;12.38;5.40;;;;;;;;;;5033271;28;95153;-77
2022/04/21 22:55:45;;;;;;;11.85;5.43;;;;;;;;;;5032435;28;96856;-76
2022/04/21 22:58:11;;;;;;;12.40;5.85;;;;;;;;;;5032833;28;97256;-77
2022/04/21 23:00:38;;;;;;;11.27;5.60;;;;;;;;;;5032760;28;95361;-77
2022/04/21 23:03:04;;;;;;;9.40;5.43;;;;;;;;;;5033452;28;97067;-75
2022/04/21 23:05:31;;;;;;;10.52;5.35;;;;;;;;;;5035092;27;97306;-77
2022/04/21 23:07:57;;;;;;;16.33;4.97;;;;;;;;;;5033515;28;96728;-76
2022/04/21 23:15:53;;;;;;;13.48;5.90;;;;;;;;;;5032962;27;97308;-74
2022/04/21 23:18:19;;;;;;;13.40;5.45;;;;;;;;;;5031847;27;97180;-75
2022/04/21 23:20:47;;;;;;;12.18;5.40;;;;;;;;;;5032673;28;95268;-75
2022/04/21 23:23:14;;;;;;;9.82;5.35;;;;;;;;;;5031083;27;96841;-73
2022/04/21 23:25:43;;;;;;;11.38;5.72;;;;;;;;;;5030370;27;97298;-73
2022/04/21 23:28:09;;;;;;;9.38;4.82;;;;;;;;;;5036177;27;95217;-72
2022/04/21 23:30:36;;;;;;;9.60;5.38;;;;;;;;;;5032144;27;97299;-74
2022/04/21 23:33:02;;;;;;;10.07;5.28;;;;;;;;;;5032501;27;95335;-77
2022/04/21 23:35:28;;;;;;;13.25;5.28;;;;;;;;;;5032258;28;97281;-77
2022/04/21 23:40:39;;;;;;;11.20;5.53;;;;;;;;;;5031432;27;95264;-73
2022/04/21 23:43:06;;;;;;;8.85;4.82;;;;;;;;;;5032152;27;97369;-72
2022/04/21 23:45:32;;;;;;;11.73;5.32;;;;;;;;;;5031734;27;97618;-76
2022/04/21 23:47:59;;;;;;;10.30;5.22;;;;;;;;;;5035146;27;95336;-77
2022/04/21 23:50:26;;;;;;;10.48;5.68;;;;;;;;;;5031637;27;97213;-76
2022/04/21 23:52:52;;;;;;;11.68;5.53;;;;;;;;;;5031877;28;95376;-76
2022/04/21 23:55:18;;;;;;;11.32;5.28;;;;;;;;;;5031469;27;95840;-76
2022/04/21 23:57:44;;;;;;;12.00;5.80;;;;;;;;;;5031950;28;97367;-77
